F/V Moorea — FMIT — position and weather

sailwx.info

Track history (hours):
 
Tides and Currents Weather Stations Pressure Air Temp Water Temp Dewpoint Dewpoint Depression Visibility Wind Speed Wind Dir Waves Ship Positions

F/V Moorea

Last reported at 2018-Jul-23 07:04 UTC. Time now 2018-Jul-23 11:54 UTC.
Position N 46°07' W 002°32'.

Length 18 m.

Type: Fishing. MMSI: 228239900.

Date/timePositionNaut miles runAvg speedWind from/ knotsBaromVisibWave heightAir tempDewpointWater temp
2018-Jul-23 07:04N 46°07' W 002°32'0 3.9
2018-Jul-23 07:00N 46°07' W 002°33'8 3.7
2018-Jul-23 04:53N 46°13' W 002°41'1 3.8
2018-Jul-23 04:31N 46°14' W 002°41'3 6.5
2018-Jul-23 04:00N 46°18' W 002°42'5 9.4
2018-Jul-23 03:30N 46°22' W 002°41'5 9.4
2018-Jul-23 03:00N 46°27' W 002°41'5 9.5
2018-Jul-23 02:28N 46°32' W 002°40'5 9.8
2018-Jul-23 02:01N 46°36' W 002°39'5 9.7
2018-Jul-23 01:30N 46°41' W 002°39'5 9.5
2018-Jul-23 01:00N 46°46' W 002°38'5 9.9
2018-Jul-23 00:29N 46°51' W 002°37'510.0
2018-Jul-23 00:01N 46°56' W 002°37'5 9.6
2018-Jul-22 23:31N 47°01' W 002°36'5 9.7
2018-Jul-22 23:00N 47°06' W 002°36'5 9.8
2018-Jul-22 22:31N 47°10' W 002°35'5 9.8
2018-Jul-22 22:01N 47°15' W 002°35'4 8.4
2018-Jul-22 21:31N 47°19' W 002°32'2 0.0
2018-Jul-21 03:09N 47°18' W 002°31'0 0.0
2018-Jul-21 03:00N 47°18' W 002°31'0 0.0
2018-Jul-21 02:29N 47°18' W 002°31'0 0.0
2018-Jul-21 01:59N 47°18' W 002°31'0 0.0
2018-Jul-21 01:30N 47°18' W 002°31'0 0.0
2018-Jul-21 00:55N 47°18' W 002°31'0 0.0
2018-Jul-21 00:30N 47°18' W 002°31'0 0.2
2018-Jul-20 23:58N 47°18' W 002°31'0 0.0
2018-Jul-20 23:18N 47°18' W 002°31'74 1.9
2018-Jul-19 07:40N 46°04' W 002°30'5 2.8
2018-Jul-19 05:43N 46°09' W 002°31'1 3.8
2018-Jul-19 05:27N 46°09' W 002°29'2 0.7
2018-Jul-19 02:10N 46°11' W 002°28'3 8.6
2018-Jul-19 01:51N 46°12' W 002°25'4 8.6
2018-Jul-19 01:21N 46°15' W 002°20'4 8.5
2018-Jul-19 00:55N 46°16' W 002°15'4 8.7
2018-Jul-19 00:29N 46°18' W 002°10'4 9.1
2018-Jul-19 00:00N 46°20' W 002°05'4 8.9
2018-Jul-18 23:30N 46°23' W 001°59'4 8.7
2018-Jul-18 23:00N 46°25' W 001°54'4 9.0
2018-Jul-18 22:30N 46°28' W 001°49'2 4.3
2018-Jul-18 22:00N 46°30' W 001°47'0 0.0
2018-Jul-18 21:30N 46°30' W 001°47'0 0.0
2018-Jul-18 21:00N 46°30' W 001°47'3 6.4
2018-Jul-18 20:30N 46°27' W 001°50'5 9.0
2018-Jul-18 20:00N 46°24' W 001°55'11 9.2
2018-Jul-18 18:46N 46°18' W 002°08'18 6.7
2018-Jul-18 16:07N 46°09' W 002°31'1 3.9
2018-Jul-18 15:51N 46°10' W 002°30'22 0.5
2018-Jul-16 22:45N 46°21' W 002°03'2 8.0
2018-Jul-16 22:30N 46°22' W 002°00'4 8.0
2018-Jul-16 22:00N 46°24' W 001°56'4 8.3
2018-Jul-16 21:30N 46°27' W 001°50'4 7.2
2018-Jul-16 21:00N 46°30' W 001°48'0 0.6
2018-Jul-16 20:30N 46°30' W 001°47'0 0.0
2018-Jul-16 20:00N 46°30' W 001°47'2 3.4
2018-Jul-16 19:30N 46°28' W 001°47'4 8.8
2018-Jul-16 19:00N 46°25' W 001°51'41 3.8
2018-Jul-16 08:19N 46°21' W 002°50'6 2.1
2018-Jul-16 05:31N 46°24' W 002°57'0 4.4
2018-Jul-16 05:30N 46°24' W 002°57'8 4.5
2018-Jul-16 03:48N 46°26' W 003°08'3 3.1
2018-Jul-16 02:59N 46°29' W 003°10'2 3.5
2018-Jul-16 02:30N 46°30' W 003°10'2 3.0
2018-Jul-16 01:59N 46°30' W 003°09'1 2.7
2018-Jul-16 01:30N 46°29' W 003°10'1 2.5
2018-Jul-16 01:00N 46°30' W 003°09'2 4.0
2018-Jul-16 00:30N 46°29' W 003°08'1 2.7
2018-Jul-15 23:59N 46°29' W 003°10'2 3.7
2018-Jul-15 23:29N 46°31' W 003°11'3 3.8
2018-Jul-15 22:42N 46°34' W 003°12'1 4.2
2018-Jul-15 22:30N 46°35' W 003°11'2 4.3
2018-Jul-15 22:00N 46°36' W 003°09'2 3.4
2018-Jul-15 21:30N 46°36' W 003°06'2 4.3
2018-Jul-15 21:00N 46°35' W 003°04'1 1.9
2018-Jul-15 20:30N 46°34' W 003°03'2 3.6
2018-Jul-15 20:00N 46°32' W 003°04'2 3.6
2018-Jul-15 19:30N 46°30' W 003°05'2 3.7
2018-Jul-15 19:00N 46°28' W 003°04'2 3.6
2018-Jul-15 18:30N 46°27' W 003°03'2 3.9
2018-Jul-15 18:00N 46°26' W 003°00'2 3.9
2018-Jul-15 17:30N 46°25' W 002°58'1 2.6
2018-Jul-15 16:59N 46°25' W 002°56'3 4.0
2018-Jul-15 16:11N 46°27' W 002°59'1 4.2
2018-Jul-15 16:00N 46°28' W 002°60'2 3.7
2018-Jul-15 15:30N 46°28' W 003°02'2 3.7
2018-Jul-15 15:00N 46°26' W 003°01'3 2.2
2018-Jul-15 13:28N 46°25' W 002°57'2 3.9
2018-Jul-15 13:00N 46°23' W 002°56'2 2.6
2018-Jul-15 12:19N 46°25' W 002°57'11 1.0
2018-Jul-15 01:02N 46°36' W 002°56'2 3.6
2018-Jul-15 00:36N 46°36' W 002°54'0 2.2
2018-Jul-15 00:30N 46°36' W 002°54'7 3.4
2018-Jul-14 22:19N 46°30' W 002°49'2 3.7
2018-Jul-14 21:54N 46°29' W 002°51'2 3.8
2018-Jul-14 21:23N 46°28' W 002°54'26 1.7
2018-Jul-14 06:39N 46°51' W 003°08'210.5
2018-Jul-14 06:26N 46°53' W 003°06'510.1
2018-Jul-14 05:57N 46°57' W 003°02'4 9.7
2018-Jul-14 05:30N 46°60' W 002°58'5 9.6
2018-Jul-14 05:00N 47°04' W 002°53'5 9.7
2018-Jul-14 04:29N 47°07' W 002°48'5 9.3
2018-Jul-14 04:00N 47°11' W 002°44'5 9.1
2018-Jul-14 03:30N 47°14' W 002°39'5 9.8
2018-Jul-14 03:00N 47°18' W 002°35'3 5.2
2018-Jul-14 02:28N 47°18' W 002°31'0 0.0
2018-Jul-14 01:58N 47°18' W 002°31'0 0.0
2018-Jul-14 01:29N 47°18' W 002°31'0 0.0
2018-Jul-14 01:00N 47°18' W 002°31'3 5.9
2018-Jul-14 00:27N 47°17' W 002°35'7 9.8
2018-Jul-13 23:41N 47°11' W 002°42'2 9.9
2018-Jul-13 23:30N 47°09' W 002°43'19 9.4
2018-Jul-13 21:28N 46°55' W 003°01'4 9.0
2018-Jul-13 20:59N 46°51' W 003°05'4 3.7
2018-Jul-13 19:57N 46°47' W 003°06'2 2.9
2018-Jul-13 19:13N 46°45' W 003°07'1 3.7
2018-Jul-13 18:55N 46°46' W 003°08'1 1.2
2018-Jul-13 18:16N 46°47' W 003°07'1 4.0
2018-Jul-13 17:59N 46°46' W 003°06'2 3.8
2018-Jul-13 17:26N 46°44' W 003°05'1 2.9
2018-Jul-13 16:59N 46°43' W 003°04'5 3.7
2018-Jul-13 15:32N 46°38' W 002°60'0 3.9
2018-Jul-13 15:30N 46°38' W 002°60'2 0.7
2018-Jul-13 12:14N 46°37' W 002°58'1 4.0
2018-Jul-13 11:57N 46°36' W 002°56'0 0.2
2018-Jul-13 09:20N 46°36' W 002°57'1 3.4
2018-Jul-13 08:56N 46°34' W 002°58'  
Track history (hours):
 
Tides and Currents Weather Stations Pressure Air Temp Water Temp Dewpoint Dewpoint Depression Visibility Wind Speed Wind Dir Waves Ship Positions

F/V Moorea

Last reported at 2018-Jul-23 07:04 UTC. Time now 2018-Jul-23 11:54 UTC.
Position N 46°07' W 002°32'.

Length 18 m.

Type: Fishing. MMSI: 228239900.

Date/timePositionNaut miles runAvg speedWind from/ knotsBaromVisibWave heightAir tempDewpointWater temp
2018-Jul-23 07:04N 46°07' W 002°32'0 3.9
2018-Jul-23 07:00N 46°07' W 002°33'8 3.7
2018-Jul-23 04:53N 46°13' W 002°41'1 3.8
2018-Jul-23 04:31N 46°14' W 002°41'3 6.5
2018-Jul-23 04:00N 46°18' W 002°42'5 9.4
2018-Jul-23 03:30N 46°22' W 002°41'5 9.4
2018-Jul-23 03:00N 46°27' W 002°41'5 9.5
2018-Jul-23 02:28N 46°32' W 002°40'5 9.8
2018-Jul-23 02:01N 46°36' W 002°39'5 9.7
2018-Jul-23 01:30N 46°41' W 002°39'5 9.5
2018-Jul-23 01:00N 46°46' W 002°38'5 9.9
2018-Jul-23 00:29N 46°51' W 002°37'510.0
2018-Jul-23 00:01N 46°56' W 002°37'5 9.6
2018-Jul-22 23:31N 47°01' W 002°36'5 9.7
2018-Jul-22 23:00N 47°06' W 002°36'5 9.8
2018-Jul-22 22:31N 47°10' W 002°35'5 9.8
2018-Jul-22 22:01N 47°15' W 002°35'4 8.4
2018-Jul-22 21:31N 47°19' W 002°32'2 0.0
2018-Jul-21 03:09N 47°18' W 002°31'0 0.0
2018-Jul-21 03:00N 47°18' W 002°31'0 0.0
2018-Jul-21 02:29N 47°18' W 002°31'0 0.0
2018-Jul-21 01:59N 47°18' W 002°31'0 0.0
2018-Jul-21 01:30N 47°18' W 002°31'0 0.0
2018-Jul-21 00:55N 47°18' W 002°31'0 0.0
2018-Jul-21 00:30N 47°18' W 002°31'0 0.2
2018-Jul-20 23:58N 47°18' W 002°31'0 0.0
2018-Jul-20 23:18N 47°18' W 002°31'74 1.9
2018-Jul-19 07:40N 46°04' W 002°30'5 2.8
2018-Jul-19 05:43N 46°09' W 002°31'1 3.8
2018-Jul-19 05:27N 46°09' W 002°29'2 0.7
2018-Jul-19 02:10N 46°11' W 002°28'3 8.6
2018-Jul-19 01:51N 46°12' W 002°25'4 8.6
2018-Jul-19 01:21N 46°15' W 002°20'4 8.5
2018-Jul-19 00:55N 46°16' W 002°15'4 8.7
2018-Jul-19 00:29N 46°18' W 002°10'4 9.1
2018-Jul-19 00:00N 46°20' W 002°05'4 8.9
2018-Jul-18 23:30N 46°23' W 001°59'4 8.7
2018-Jul-18 23:00N 46°25' W 001°54'4 9.0
2018-Jul-18 22:30N 46°28' W 001°49'2 4.3
2018-Jul-18 22:00N 46°30' W 001°47'0 0.0
2018-Jul-18 21:30N 46°30' W 001°47'0 0.0
2018-Jul-18 21:00N 46°30' W 001°47'3 6.4
2018-Jul-18 20:30N 46°27' W 001°50'5 9.0
2018-Jul-18 20:00N 46°24' W 001°55'11 9.2
2018-Jul-18 18:46N 46°18' W 002°08'18 6.7
2018-Jul-18 16:07N 46°09' W 002°31'1 3.9
2018-Jul-18 15:51N 46°10' W 002°30'22 0.5
2018-Jul-16 22:45N 46°21' W 002°03'2 8.0
2018-Jul-16 22:30N 46°22' W 002°00'4 8.0
2018-Jul-16 22:00N 46°24' W 001°56'4 8.3
2018-Jul-16 21:30N 46°27' W 001°50'4 7.2
2018-Jul-16 21:00N 46°30' W 001°48'0 0.6
2018-Jul-16 20:30N 46°30' W 001°47'0 0.0
2018-Jul-16 20:00N 46°30' W 001°47'2 3.4
2018-Jul-16 19:30N 46°28' W 001°47'4 8.8
2018-Jul-16 19:00N 46°25' W 001°51'41 3.8
2018-Jul-16 08:19N 46°21' W 002°50'6 2.1
2018-Jul-16 05:31N 46°24' W 002°57'0 4.4
2018-Jul-16 05:30N 46°24' W 002°57'8 4.5
2018-Jul-16 03:48N 46°26' W 003°08'3 3.1
2018-Jul-16 02:59N 46°29' W 003°10'2 3.5
2018-Jul-16 02:30N 46°30' W 003°10'2 3.0
2018-Jul-16 01:59N 46°30' W 003°09'1 2.7
2018-Jul-16 01:30N 46°29' W 003°10'1 2.5
2018-Jul-16 01:00N 46°30' W 003°09'2 4.0
2018-Jul-16 00:30N 46°29' W 003°08'1 2.7
2018-Jul-15 23:59N 46°29' W 003°10'2 3.7
2018-Jul-15 23:29N 46°31' W 003°11'3 3.8
2018-Jul-15 22:42N 46°34' W 003°12'1 4.2
2018-Jul-15 22:30N 46°35' W 003°11'2 4.3
2018-Jul-15 22:00N 46°36' W 003°09'2 3.4
2018-Jul-15 21:30N 46°36' W 003°06'2 4.3
2018-Jul-15 21:00N 46°35' W 003°04'1 1.9
2018-Jul-15 20:30N 46°34' W 003°03'2 3.6
2018-Jul-15 20:00N 46°32' W 003°04'2 3.6
2018-Jul-15 19:30N 46°30' W 003°05'2 3.7
2018-Jul-15 19:00N 46°28' W 003°04'2 3.6
2018-Jul-15 18:30N 46°27' W 003°03'2 3.9
2018-Jul-15 18:00N 46°26' W 003°00'2 3.9
2018-Jul-15 17:30N 46°25' W 002°58'1 2.6
2018-Jul-15 16:59N 46°25' W 002°56'3 4.0
2018-Jul-15 16:11N 46°27' W 002°59'1 4.2
2018-Jul-15 16:00N 46°28' W 002°60'2 3.7
2018-Jul-15 15:30N 46°28' W 003°02'2 3.7
2018-Jul-15 15:00N 46°26' W 003°01'3 2.2
2018-Jul-15 13:28N 46°25' W 002°57'2 3.9
2018-Jul-15 13:00N 46°23' W 002°56'2 2.6
2018-Jul-15 12:19N 46°25' W 002°57'11 1.0
2018-Jul-15 01:02N 46°36' W 002°56'2 3.6
2018-Jul-15 00:36N 46°36' W 002°54'0 2.2
2018-Jul-15 00:30N 46°36' W 002°54'7 3.4
2018-Jul-14 22:19N 46°30' W 002°49'2 3.7
2018-Jul-14 21:54N 46°29' W 002°51'2 3.8
2018-Jul-14 21:23N 46°28' W 002°54'26 1.7
2018-Jul-14 06:39N 46°51' W 003°08'210.5
2018-Jul-14 06:26N 46°53' W 003°06'510.1
2018-Jul-14 05:57N 46°57' W 003°02'4 9.7
2018-Jul-14 05:30N 46°60' W 002°58'5 9.6
2018-Jul-14 05:00N 47°04' W 002°53'5 9.7
2018-Jul-14 04:29N 47°07' W 002°48'5 9.3
2018-Jul-14 04:00N 47°11' W 002°44'5 9.1
2018-Jul-14 03:30N 47°14' W 002°39'5 9.8
2018-Jul-14 03:00N 47°18' W 002°35'3 5.2
2018-Jul-14 02:28N 47°18' W 002°31'0 0.0
2018-Jul-14 01:58N 47°18' W 002°31'0 0.0
2018-Jul-14 01:29N 47°18' W 002°31'0 0.0
2018-Jul-14 01:00N 47°18' W 002°31'3 5.9
2018-Jul-14 00:27N 47°17' W 002°35'7 9.8
2018-Jul-13 23:41N 47°11' W 002°42'2 9.9
2018-Jul-13 23:30N 47°09' W 002°43'19 9.4
2018-Jul-13 21:28N 46°55' W 003°01'4 9.0
2018-Jul-13 20:59N 46°51' W 003°05'4 3.7
2018-Jul-13 19:57N 46°47' W 003°06'2 2.9
2018-Jul-13 19:13N 46°45' W 003°07'1 3.7
2018-Jul-13 18:55N 46°46' W 003°08'1 1.2
2018-Jul-13 18:16N 46°47' W 003°07'1 4.0
2018-Jul-13 17:59N 46°46' W 003°06'2 3.8
2018-Jul-13 17:26N 46°44' W 003°05'1 2.9
2018-Jul-13 16:59N 46°43' W 003°04'5 3.7
2018-Jul-13 15:32N 46°38' W 002°60'0 3.9
2018-Jul-13 15:30N 46°38' W 002°60'2 0.7
2018-Jul-13 12:14N 46°37' W 002°58'1 4.0
2018-Jul-13 11:57N 46°36' W 002°56'0 0.2
2018-Jul-13 09:20N 46°36' W 002°57'1 3.4
2018-Jul-13 08:56N 46°34' W 002°58'  

Dump ship's entire track history